Time;durP1;ratioP1;P1;durP2;ratioP2;P2;SDS_P1;SDS_P2;PMS_P1;PMS_P2;Temp;Humidity;BMP_temperature;BMP_pressure;BME280_temperature;BME280_humidity;BME280_pressure;Samples;Min_cycle;Max_cycle;Signal;HPM_P1;HPM_P2
2022/01/30 00:00:15;;;;;;;9.77;2.92;;;;;;;2.72;71.58;99825.87;4492874;31;34649;-83
2022/01/30 00:03:01;;;;;;;8.20;3.05;;;;;;;2.97;71.57;99830.75;4499902;31;35147;-83
2022/01/30 00:05:48;;;;;;;9.63;3.95;;;;;;;3.01;71.38;99815.59;4492030;31;34642;-83
2022/01/30 00:08:35;;;;;;;11.77;3.12;;;;;;;2.87;73.09;99820.63;4481743;32;34155;-84
2022/01/30 00:11:26;;;;;;;7.05;3.20;;;;;;;3.11;72.59;99827.34;4497139;31;35517;-85
2022/01/30 00:14:15;;;;;;;9.48;3.20;;;;;;;2.85;75.36;99822.78;4488869;31;35064;-87
2022/01/30 00:17:12;;;;;;;9.07;3.03;;;;;;;3.24;74.65;99814.44;4489170;31;34746;-86
2022/01/30 00:20:03;;;;;;;13.98;3.78;;;;;;;2.66;76.42;99804.19;4476388;32;34149;-85
2022/01/30 00:23:06;;;;;;;10.27;3.47;;;;;;;2.97;76.96;99792.84;4478480;31;34553;-85
2022/01/30 00:25:55;;;;;;;6.28;2.50;;;;;;;2.62;78.16;99791.44;4476919;32;36019;-86
2022/01/30 00:28:41;;;;;;;7.25;2.83;;;;;;;2.90;76.76;99784.91;4482080;32;34711;-86
2022/01/30 00:31:28;;;;;;;8.45;2.90;;;;;;;2.65;77.37;99783.62;4487056;32;34227;-84
2022/01/30 00:34:35;;;;;;;10.15;3.17;;;;;;;3.25;75.01;99767.38;4478017;31;35526;-85
2022/01/30 00:37:22;;;;;;;10.80;2.92;;;;;;;3.11;73.94;99743.41;4469865;31;35006;-85
2022/01/30 00:40:09;;;;;;;7.15;3.00;;;;;;;2.40;77.29;99745.47;4466899;31;35692;-86
2022/01/30 00:42:56;;;;;;;9.07;3.05;;;;;;;2.87;75.30;99734.81;4477914;32;34333;-86
2022/01/30 00:45:43;;;;;;;10.00;3.45;;;;;;;2.77;76.33;99728.53;4475617;31;34580;-86
2022/01/30 00:48:29;;;;;;;9.43;3.33;;;;;;;2.61;76.08;99731.06;4477597;31;35911;-85
2022/01/30 00:51:16;;;;;;;13.00;2.80;;;;;;;2.97;74.84;99726.00;4489875;31;34850;-86
2022/01/30 00:54:04;;;;;;;8.13;2.80;;;;;;;2.73;76.37;99733.63;4479775;31;34183;-86
2022/01/30 00:56:50;;;;;;;9.85;4.15;;;;;;;3.32;74.65;99730.84;4479931;31;34613;-86
2022/01/30 00:59:37;;;;;;;8.25;3.15;;;;;;;3.83;72.74;99725.69;4479560;31;34935;-86
2022/01/30 01:02:23;;;;;;;12.02;3.47;;;;;;;3.98;71.86;99707.88;4490718;31;35450;-86
2022/01/30 01:05:10;;;;;;;6.30;3.20;;;;;;;2.95;73.98;99711.06;4479707;31;34066;-86
2022/01/30 01:07:59;;;;;;;7.68;3.05;;;;;;;2.33;77.49;99734.03;4479468;31;34585;-86
2022/01/30 01:10:51;;;;;;;9.70;2.87;;;;;;;2.28;77.70;99712.34;4479950;31;35027;-85
2022/01/30 01:25:57;;;;;;;10.63;3.42;;;;;;;3.35;73.98;99673.44;4459967;32;35509;-85
2022/01/30 01:28:45;;;;;;;13.00;3.40;;;;;;;3.69;71.42;99691.22;4474616;32;34120;-86
2022/01/30 01:31:31;;;;;;;10.25;3.65;;;;;;;3.05;73.60;99693.03;4463023;32;34674;-86
2022/01/30 01:37:10;;;;;;;10.25;3.15;;;;;;;2.69;75.75;99662.97;4490789;31;34830;-87
2022/01/30 01:40:04;;;;;;;8.93;2.97;;;;;;;3.57;73.48;99646.19;4456121;32;34432;-87
2022/01/30 01:42:50;;;;;;;12.43;3.47;;;;;;;3.29;72.09;99643.87;4482010;31;34588;-86
2022/01/30 01:45:39;;;;;;;11.32;3.40;;;;;;;3.90;71.31;99638.72;4479094;32;34974;-86
2022/01/30 01:48:26;;;;;;;9.90;3.12;;;;;;;3.96;70.06;99637.66;4471626;31;35743;-86
2022/01/30 01:51:18;;;;;;;7.05;2.90;;;;;;;4.41;69.12;99619.84;4486885;31;34236;-86
2022/01/30 01:54:04;;;;;;;7.25;3.03;;;;;;;4.32;68.88;99609.78;4479313;31;34643;-87
2022/01/30 01:56:51;;;;;;;9.00;2.97;;;;;;;3.69;72.03;99623.47;4502005;31;34984;-86
2022/01/30 01:59:41;;;;;;;9.43;3.67;;;;;;;4.06;71.08;99615.97;4475790;32;35577;-86
2022/01/30 02:02:28;;;;;;;8.05;3.47;;;;;;;4.22;70.33;99619.53;4479856;32;35054;-86
2022/01/30 02:05:15;;;;;;;8.30;3.33;;;;;;;4.44;69.62;99608.44;4467114;31;35509;-86
2022/01/30 02:11:43;;;;;;;8.50;2.72;;;;;;;4.56;69.20;99601.94;4476501;31;34579;-86
2022/01/30 02:14:35;;;;;;;11.52;3.25;;;;;;;4.23;69.75;99593.22;4476391;31;35050;-86
2022/01/30 02:26:41;;;;;;;9.35;4.18;;;;;;;2.12;79.48;99576.22;4485502;32;34153;-86
2022/01/30 02:29:29;;;;;;;8.70;3.47;;;;;;;2.97;77.06;99560.88;4474827;32;35601;-86
2022/01/30 02:32:15;;;;;;;11.10;3.00;;;;;;;2.74;77.41;99556.69;4468797;31;35000;-86
2022/01/30 02:35:02;;;;;;;8.18;3.28;;;;;;;3.08;75.92;99546.31;4489725;31;35717;-86
2022/01/30 02:37:53;;;;;;;8.82;3.17;;;;;;;3.22;74.89;99543.94;4478981;31;34405;-85
2022/01/30 02:40:42;;;;;;;11.25;3.78;;;;;;;3.21;74.50;99533.38;4489801;31;34539;-84
2022/01/30 02:43:34;;;;;;;8.23;3.08;;;;;;;3.18;74.32;99528.47;4489635;31;35976;-84
2022/01/30 02:46:31;;;;;;;9.40;3.25;;;;;;;3.15;74.68;99514.38;4479606;32;35502;-84
2022/01/30 02:52:06;;;;;;;9.73;2.87;;;;;;;1.65;84.71;99510.16;4468134;32;34494;-84
2022/01/30 02:54:54;;;;;;;8.68;2.45;;;;;;;2.13;84.79;99499.47;4482892;31;34930;-83
2022/01/30 02:57:40;;;;;;;8.60;2.53;;;;;;;2.55;83.85;99498.69;4475250;31;35491;-85
2022/01/30 03:00:27;;;;;;;8.65;3.60;;;;;;;2.61;82.69;99498.44;4484688;32;34100;-85
2022/01/30 03:03:13;;;;;;;9.02;3.00;;;;;;;2.63;81.35;99506.31;4472635;31;35503;-84
2022/01/30 03:06:01;;;;;;;7.45;2.67;;;;;;;2.41;82.43;99498.31;4457232;32;34999;-83
2022/01/30 03:08:47;;;;;;;7.07;2.65;;;;;;;2.62;82.41;99486.56;4463984;32;35422;-84
2022/01/30 03:11:33;;;;;;;7.93;2.58;;;;;;;2.68;83.41;99477.38;4471488;31;34113;-81
2022/01/30 03:14:19;;;;;;;6.10;2.35;;;;;;;2.83;83.74;99481.25;4467026;31;35539;-82
2022/01/30 03:17:11;;;;;;;5.60;2.62;;;;;;;3.04;82.95;99482.94;4483178;31;35931;-83
2022/01/30 03:19:57;;;;;;;6.37;2.40;;;;;;;3.15;82.45;99478.38;4467626;31;35242;-82
2022/01/30 03:22:43;;;;;;;4.97;2.35;;;;;;;3.40;81.45;99474.94;4490979;31;35180;-83
2022/01/30 03:25:32;;;;;;;6.80;2.60;;;;;;;3.47;81.02;99472.81;4490363;31;34563;-81
2022/01/30 03:28:20;;;;;;;6.62;2.55;;;;;;;3.54;81.04;99458.97;4491478;31;34577;-83
2022/01/30 03:31:10;;;;;;;6.20;2.95;;;;;;;3.68;81.10;99459.28;4477728;31;34834;-83
2022/01/30 03:33:58;;;;;;;6.78;2.60;;;;;;;3.60;81.21;99445.16;4481407;31;34291;-83
2022/01/30 03:36:44;;;;;;;8.40;2.70;;;;;;;3.80;80.40;99448.97;4479531;31;34518;-82
2022/01/30 03:39:30;;;;;;;9.30;3.70;;;;;;;3.69;80.88;99453.56;4469768;31;34546;-81
2022/01/30 03:42:17;;;;;;;7.07;3.03;;;;;;;3.61;81.71;99451.41;4478924;31;34543;-77
2022/01/30 03:45:04;;;;;;;4.80;2.35;;;;;;;3.85;80.89;99440.84;4473933;31;35041;-83
2022/01/30 03:47:55;;;;;;;6.32;2.25;;;;;;;3.83;80.95;99415.91;4469740;31;35207;-82
2022/01/30 03:50:43;;;;;;;8.18;2.58;;;;;;;3.83;81.18;99418.62;4480048;31;33559;-80
2022/01/30 03:53:32;;;;;;;6.10;2.90;;;;;;;3.83;81.05;99432.97;4468440;31;35264;-80
2022/01/30 03:56:18;;;;;;;6.30;2.67;;;;;;;3.78;81.31;99451.94;4482920;31;34491;-82
2022/01/30 03:59:04;;;;;;;6.32;3.10;;;;;;;3.81;81.04;99456.84;4486316;31;34656;-83
2022/01/30 04:01:51;;;;;;;4.75;2.37;;;;;;;3.81;81.02;99424.31;4474869;31;35003;-80
2022/01/30 04:04:37;;;;;;;6.95;2.53;;;;;;;3.76;81.54;99437.06;4476334;31;34413;-83
2022/01/30 04:07:24;;;;;;;5.95;2.53;;;;;;;3.72;81.76;99430.53;4488212;31;34166;-79
2022/01/30 04:10:11;;;;;;;6.55;2.85;;;;;;;3.71;81.90;99424.31;4480061;31;34176;-81
2022/01/30 04:12:57;;;;;;;6.20;2.55;;;;;;;3.67;82.25;99433.25;4472753;31;34640;-82
2022/01/30 04:15:44;;;;;;;5.47;2.28;;;;;;;3.81;81.96;99418.91;4472442;31;35431;-81
2022/01/30 04:18:31;;;;;;;7.47;2.97;;;;;;;3.90;81.83;99404.78;4481505;31;34048;-83
2022/01/30 04:21:20;;;;;;;7.68;2.92;;;;;;;3.94;81.81;99412.09;4479450;31;35177;-82
2022/01/30 04:24:07;;;;;;;7.50;2.15;;;;;;;3.95;81.91;99418.34;4486636;31;35755;-81
2022/01/30 04:26:54;;;;;;;6.30;2.80;;;;;;;3.98;81.89;99418.59;4493358;31;35747;-84
2022/01/30 04:29:42;;;;;;;5.60;2.20;;;;;;;3.93;82.27;99410.50;4490559;31;34457;-84
2022/01/30 04:32:30;;;;;;;3.17;1.83;;;;;;;4.00;82.26;99418.34;4487977;31;34702;-81
2022/01/30 04:35:25;;;;;;;7.22;2.42;;;;;;;4.14;82.11;99407.75;4479098;31;34917;-83
2022/01/30 04:38:20;;;;;;;4.28;2.30;;;;;;;4.27;81.55;99399.84;4494637;31;34702;-84
2022/01/30 04:41:26;;;;;;;7.07;2.62;;;;;;;4.14;82.31;99399.59;4480006;31;35017;-84
2022/01/30 04:53:40;;;;;;;5.22;1.87;;;;;;;4.23;82.75;99422.37;4479007;31;33710;-83
2022/01/30 04:59:48;;;;;;;4.07;1.87;;;;;;;4.16;83.44;99409.09;4488408;31;35889;-83
2022/01/30 05:08:23;;;;;;;4.60;1.95;;;;;;;4.25;83.41;99414.78;4492121;31;34176;-82
2022/01/30 05:11:10;;;;;;;5.57;1.77;;;;;;;4.31;83.75;99421.81;4480064;31;35102;-80
2022/01/30 05:13:57;;;;;;;7.85;2.35;;;;;;;4.48;82.88;99416.88;4480283;31;34809;-81
2022/01/30 05:16:44;;;;;;;7.00;2.67;;;;;;;4.43;83.02;99425.03;4466625;31;34078;-82
2022/01/30 05:19:32;;;;;;;5.28;2.22;;;;;;;4.31;83.50;99421.00;4475021;31;34637;-80
2022/01/30 05:22:18;;;;;;;5.80;2.45;;;;;;;4.37;83.21;99415.28;4484328;31;35918;-78
2022/01/30 05:25:06;;;;;;;4.57;1.92;;;;;;;4.22;83.97;99413.41;4470269;31;34762;-82
2022/01/30 05:27:53;;;;;;;4.72;2.05;;;;;;;4.24;83.82;99402.28;4463674;31;33218;-82
2022/01/30 05:30:40;;;;;;;5.93;2.20;;;;;;;4.23;84.37;99397.97;4480915;31;34643;-80
2022/01/30 05:33:26;;;;;;;6.18;2.70;;;;;;;4.31;84.46;99400.09;4477867;31;35952;-83
2022/01/30 05:36:13;;;;;;;4.72;2.28;;;;;;;4.13;85.32;99400.72;4465262;31;34570;-83
2022/01/30 05:39:04;;;;;;;4.70;2.03;;;;;;;4.28;84.80;99373.53;4469478;31;34109;-85
2022/01/30 05:41:52;;;;;;;6.93;3.12;;;;;;;4.18;85.42;99396.06;4464704;31;34602;-84
2022/01/30 05:45:11;;;;;;;5.15;2.15;;;;;;;4.17;85.43;99401.78;4481784;31;34811;-84
2022/01/30 05:47:57;;;;;;;3.78;1.37;;;;;;;4.20;85.78;99390.38;4488530;31;34519;-82
2022/01/30 05:50:45;;;;;;;4.68;1.90;;;;;;;4.30;85.24;99390.34;4480913;31;34073;-82
2022/01/30 05:53:32;;;;;;;3.83;1.98;;;;;;;4.30;85.12;99403.91;4479594;31;35472;-83
2022/01/30 05:56:19;;;;;;;4.03;1.80;;;;;;;4.29;85.16;99386.00;4482133;31;34544;-82
2022/01/30 05:59:05;;;;;;;5.70;2.08;;;;;;;4.36;84.97;99410.94;4476399;31;35197;-82
2022/01/30 06:01:55;;;;;;;4.22;1.90;;;;;;;4.16;85.79;99403.69;4488372;31;34067;-83
2022/01/30 06:04:42;;;;;;;4.30;1.83;;;;;;;4.25;85.38;99404.72;4493149;31;35603;-81
2022/01/30 06:07:31;;;;;;;4.93;1.70;;;;;;;4.24;85.51;99410.41;4477365;31;35257;-81
2022/01/30 06:10:20;;;;;;;4.12;1.77;;;;;;;4.21;85.56;99410.97;4477649;31;35734;-85
2022/01/30 06:13:06;;;;;;;6.18;2.20;;;;;;;3.97;86.50;99395.28;4465107;31;33768;-84
2022/01/30 06:15:53;;;;;;;4.18;1.60;;;;;;;4.12;85.45;99396.34;4492772;31;37486;-80
2022/01/30 06:18:39;;;;;;;2.58;1.42;;;;;;;4.11;85.73;99390.13;4467524;31;36321;-84
2022/01/30 06:21:29;;;;;;;3.95;1.50;;;;;;;4.06;85.70;99401.78;4480641;31;34767;-82
2022/01/30 06:24:19;;;;;;;4.55;1.75;;;;;;;4.13;85.35;99411.56;4478303;31;35191;-81
2022/01/30 06:27:14;;;;;;;4.35;1.80;;;;;;;4.25;84.87;99412.88;4467702;31;35566;-84
2022/01/30 06:30:06;;;;;;;4.90;1.83;;;;;;;3.93;86.13;99410.50;4470941;31;36185;-81
2022/01/30 06:32:54;;;;;;;3.08;1.75;;;;;;;4.03;86.19;99421.31;4465144;31;34325;-81
2022/01/30 06:35:44;;;;;;;2.60;1.50;;;;;;;4.22;85.13;99413.41;4466489;31;34062;-83
2022/01/30 06:38:31;;;;;;;4.53;1.55;;;;;;;4.17;85.73;99410.72;4477220;31;34333;-85
2022/01/30 06:41:20;;;;;;;5.40;1.70;;;;;;;4.31;85.46;99416.38;4482535;31;35856;-82
2022/01/30 06:44:09;;;;;;;2.33;1.05;;;;;;;4.45;85.12;99422.06;4479397;31;34652;-80
2022/01/30 06:47:04;;;;;;;1.90;1.10;;;;;;;4.60;84.55;99435.56;4468550;31;34043;-77
2022/01/30 06:49:52;;;;;;;2.20;1.00;;;;;;;4.92;83.58;99450.63;4471493;31;34604;-81
2022/01/30 06:52:42;;;;;;;2.53;1.17;;;;;;;5.22;82.05;99435.28;4481102;31;34933;-82
2022/01/30 06:55:42;;;;;;;3.45;1.17;;;;;;;5.21;81.54;99434.50;4470231;31;34531;-81
2022/01/30 06:58:33;;;;;;;1.67;0.65;;;;;;;5.45;79.60;99453.63;4490365;31;34320;-78
2022/01/30 07:01:25;;;;;;;2.37;0.60;;;;;;;5.70;77.32;99400.19;4478738;31;35474;-81
2022/01/30 07:04:13;;;;;;;2.37;0.88;;;;;;;5.70;77.29;99433.62;4478860;31;36019;-80
2022/01/30 07:07:05;;;;;;;1.95;0.52;;;;;;;5.68;77.52;99432.28;4472235;31;34483;-83
2022/01/30 07:09:51;;;;;;;1.85;0.50;;;;;;;5.82;76.75;99420.47;4479966;31;34190;-81
2022/01/30 07:12:38;;;;;;;1.15;0.40;;;;;;;5.81;75.33;99421.56;4454832;31;35506;-79
2022/01/30 07:15:24;;;;;;;1.85;0.60;;;;;;;6.01;72.59;99419.81;4493074;31;35144;-80
2022/01/30 07:18:11;;;;;;;0.50;0.22;;;;;;;5.98;72.15;99409.50;4465339;31;35831;-79
2022/01/30 07:20:57;;;;;;;1.20;0.20;;;;;;;6.04;71.27;99400.19;4490167;31;35272;-83
2022/01/30 07:23:44;;;;;;;1.37;0.40;;;;;;;6.09;70.76;99397.44;4474403;31;34546;-78
2022/01/30 07:26:32;;;;;;;0.52;0.22;;;;;;;6.17;70.22;99390.53;4488138;31;35050;-80
2022/01/30 07:29:18;;;;;;;0.95;0.40;;;;;;;6.11;70.40;99395.22;4476901;31;35941;-81
2022/01/30 07:32:05;;;;;;;1.17;0.40;;;;;;;6.15;69.09;99393.56;4488842;31;34377;-83
2022/01/30 07:34:52;;;;;;;1.52;0.50;;;;;;;6.22;68.37;99388.56;4490062;31;35569;-81
2022/01/30 07:37:39;;;;;;;1.37;0.30;;;;;;;6.23;68.13;99387.47;4479495;31;34955;-81
2022/01/30 07:40:26;;;;;;;1.58;0.30;;;;;;;6.34;66.13;99398.25;4464195;31;36165;-79
2022/01/30 07:43:12;;;;;;;2.78;0.50;;;;;;;6.44;64.65;99401.66;4471747;31;33859;-83
2022/01/30 07:46:00;;;;;;;1.30;0.35;;;;;;;6.35;65.24;99397.13;4471653;31;35541;-80
2022/01/30 07:48:46;;;;;;;3.25;0.22;;;;;;;6.53;62.63;99407.28;4477973;31;35072;-81
2022/01/30 07:51:33;;;;;;;4.65;0.45;;;;;;;6.60;61.20;99377.78;4487410;31;34614;-82
2022/01/30 07:54:20;;;;;;;5.55;0.45;;;;;;;6.61;61.86;99395.75;4491399;31;33891;-82
2022/01/30 07:57:06;;;;;;;2.47;0.50;;;;;;;6.67;59.55;99416.38;4479138;31;34595;-79
2022/01/30 07:59:52;;;;;;;1.23;0.37;;;;;;;6.82;57.54;99406.41;4475875;31;35094;-82
2022/01/30 08:02:39;;;;;;;2.33;0.30;;;;;;;6.88;57.82;99408.75;4492166;31;34657;-82
2022/01/30 08:05:26;;;;;;;1.67;0.57;;;;;;;6.99;56.73;99407.53;4464654;31;33819;-83
2022/01/30 08:08:13;;;;;;;1.55;0.40;;;;;;;6.90;57.42;99422.91;4467561;31;35640;-80
2022/01/30 08:11:02;;;;;;;1.55;0.57;;;;;;;6.91;57.87;99465.38;4488456;31;34964;-85
2022/01/30 08:13:48;;;;;;;4.72;0.70;;;;;;;7.04;58.67;99447.53;4475189;31;35615;-79
2022/01/30 08:16:34;;;;;;;2.65;0.80;;;;;;;6.68;64.61;99472.44;4479212;31;34369;-80
2022/01/30 08:19:23;;;;;;;2.35;0.60;;;;;;;6.87;63.71;99466.25;4484560;31;35250;-81
2022/01/30 08:22:11;;;;;;;3.40;1.05;;;;;;;7.08;61.77;99447.72;4489684;31;35966;-80
2022/01/30 08:24:57;;;;;;;3.58;0.75;;;;;;;6.64;65.97;99476.84;4488763;31;35230;-79
2022/01/30 08:27:44;;;;;;;2.10;0.80;;;;;;;6.11;71.03;99471.38;4489784;31;34156;-78
2022/01/30 08:30:31;;;;;;;3.20;1.17;;;;;;;5.80;72.11;99500.69;4470931;31;35304;-77
2022/01/30 08:33:18;;;;;;;1.08;0.50;;;;;;;5.86;72.23;99503.09;4477382;31;36075;-78
2022/01/30 08:36:04;;;;;;;4.15;0.70;;;;;;;6.19;71.51;99503.41;4474381;31;108180;-80
2022/01/30 08:38:51;;;;;;;3.92;0.90;;;;;;;6.17;70.90;99508.31;4470770;31;34234;-81
2022/01/30 08:41:37;;;;;;;4.20;0.82;;;;;;;6.27;70.01;99515.59;4479585;31;34605;-78
2022/01/30 08:44:24;;;;;;;3.05;0.70;;;;;;;6.38;70.25;99511.69;4478324;31;35889;-80
2022/01/30 08:47:10;;;;;;;2.78;0.77;;;;;;;6.40;67.81;99486.88;4490876;31;35504;-83
2022/01/30 08:49:57;;;;;;;2.72;0.90;;;;;;;6.47;66.35;99487.38;4477661;31;34171;-80
2022/01/30 08:52:43;;;;;;;4.00;0.93;;;;;;;6.59;66.52;99484.25;4478178;31;34526;-82
2022/01/30 08:55:30;;;;;;;1.37;0.45;;;;;;;6.73;64.36;99501.53;4480261;31;35888;-80
2022/01/30 08:58:16;;;;;;;2.00;0.60;;;;;;;6.91;62.73;99508.13;4494220;31;34697;-82
2022/01/30 09:01:03;;;;;;;2.97;0.77;;;;;;;6.88;60.25;99485.00;4481429;31;35033;-79
2022/01/30 09:03:49;;;;;;;3.22;0.68;;;;;;;6.91;60.02;99502.69;4489978;31;35499;-83
2022/01/30 09:06:38;;;;;;;3.95;0.57;;;;;;;7.03;59.94;99527.63;4487887;31;35704;-83
2022/01/30 09:09:25;;;;;;;4.22;1.17;;;;;;;6.99;59.51;99507.50;4487410;31;34874;-85
2022/01/30 09:12:12;;;;;;;3.20;0.50;;;;;;;6.90;58.46;99533.75;4489555;31;34373;-82
2022/01/30 09:14:59;;;;;;;5.28;0.93;;;;;;;7.03;58.40;99516.75;4465971;31;35295;-84
2022/01/30 09:17:45;;;;;;;4.25;0.70;;;;;;;7.10;56.87;99521.81;4492593;31;34920;-83
2022/01/30 09:20:31;;;;;;;3.97;0.70;;;;;;;7.20;56.60;99524.44;4474291;31;34636;-84
2022/01/30 09:23:18;;;;;;;3.00;1.10;;;;;;;7.40;54.79;99528.81;4489387;31;34050;-85
2022/01/30 09:26:04;;;;;;;2.37;0.57;;;;;;;7.60;54.39;99535.91;4489679;31;35309;-81
2022/01/30 09:28:50;;;;;;;2.95;1.00;;;;;;;7.43;53.60;99531.75;4466668;31;35940;-85
2022/01/30 09:31:37;;;;;;;2.17;0.68;;;;;;;7.37;53.58;99522.03;4476730;31;35064;-86
2022/01/30 09:34:23;;;;;;;1.48;0.50;;;;;;;7.37;53.89;99521.19;4478293;31;35091;-86
2022/01/30 09:37:10;;;;;;;2.53;1.17;;;;;;;7.75;53.08;99532.16;4474310;31;34637;-84
2022/01/30 09:39:56;;;;;;;4.72;1.08;;;;;;;7.73;53.20;99599.81;4483901;31;35058;-85
2022/01/30 09:42:45;;;;;;;2.40;0.60;;;;;;;7.55;52.08;99539.50;4487242;31;35637;-84
2022/01/30 09:45:31;;;;;;;4.65;0.50;;;;;;;7.05;51.35;99536.31;4476582;31;34971;-82
2022/01/30 09:48:18;;;;;;;4.28;0.50;;;;;;;6.92;52.19;99531.56;4476487;31;35191;-82
2022/01/30 09:51:08;;;;;;;2.97;0.50;;;;;;;6.66;54.47;99517.38;4471476;31;34918;-86
2022/01/30 09:53:54;;;;;;;2.97;0.50;;;;;;;6.61;55.81;99525.62;4491167;31;35506;-83
2022/01/30 09:56:40;;;;;;;2.85;0.40;;;;;;;6.40;57.31;99522.28;4477894;31;34552;-86
2022/01/30 09:59:26;;;;;;;2.78;0.88;;;;;;;6.56;57.41;99523.75;4490926;31;35290;-83
2022/01/30 10:02:13;;;;;;;1.25;0.62;;;;;;;6.50;56.81;99525.72;4489026;31;35157;-84
2022/01/30 10:05:00;;;;;;;5.68;0.62;;;;;;;6.68;56.65;99498.84;4484488;31;34938;-84
2022/01/30 10:07:53;;;;;;;2.33;0.60;;;;;;;6.83;56.38;99525.09;4488433;31;35144;-82
2022/01/30 10:10:58;;;;;;;4.05;0.93;;;;;;;6.45;57.66;99587.56;4487808;31;34386;-83
2022/01/30 10:13:45;;;;;;;1.83;0.45;;;;;;;6.14;59.36;99540.72;4486858;31;34950;-82
2022/01/30 10:16:49;;;;;;;1.48;0.47;;;;;;;5.84;58.65;99556.12;4487656;31;34234;-83
2022/01/30 10:19:35;;;;;;;4.00;0.70;;;;;;;5.73;60.29;99598.88;4482618;31;34094;-85
2022/01/30 10:22:21;;;;;;;2.15;0.70;;;;;;;5.28;64.25;99633.28;4484655;31;34805;-79
2022/01/30 10:25:27;;;;;;;7.00;1.02;;;;;;;4.77;67.02;99595.38;4466350;31;36140;-82
2022/01/30 10:28:14;;;;;;;4.05;0.80;;;;;;;4.71;65.91;99572.06;4475407;31;34692;-84
2022/01/30 10:31:05;;;;;;;3.58;0.60;;;;;;;4.40;67.19;99560.41;4480974;31;33795;-81
2022/01/30 10:33:52;;;;;;;3.42;1.35;;;;;;;4.56;62.76;99601.94;4473370;31;34364;-82
2022/01/30 10:36:42;;;;;;;2.25;0.70;;;;;;;4.67;61.54;99566.37;4483479;31;35178;-80
2022/01/30 10:39:31;;;;;;;3.20;0.52;;;;;;;4.72;61.23;99589.94;4479785;31;34679;-84
2022/01/30 10:42:30;;;;;;;1.35;0.50;;;;;;;5.01;60.13;99560.31;4486769;31;35160;-82
2022/01/30 10:45:33;;;;;;;3.55;0.85;;;;;;;5.11;59.44;99570.34;4483880;31;34571;-81
2022/01/30 10:48:23;;;;;;;2.97;1.10;;;;;;;5.24;57.63;99607.78;4464775;31;35940;-81
2022/01/30 10:51:11;;;;;;;4.97;1.00;;;;;;;5.41;57.79;99594.69;4476901;31;34236;-80
2022/01/30 10:54:06;;;;;;;2.72;0.90;;;;;;;5.61;54.74;99565.78;4473621;31;34045;-83
2022/01/30 10:57:06;;;;;;;4.97;1.00;;;;;;;5.65;54.60;99564.13;4475291;31;32775;-80
2022/01/30 10:59:56;;;;;;;3.28;0.88;;;;;;;5.64;53.89;99562.50;4475110;31;34701;-82
2022/01/30 11:02:42;;;;;;;4.00;0.60;;;;;;;6.05;53.50;99598.44;4489741;31;35404;-83
2022/01/30 11:05:29;;;;;;;6.90;1.35;;;;;;;6.33;53.40;99568.06;4485999;31;35240;-83
2022/01/30 11:08:25;;;;;;;2.83;1.00;;;;;;;6.78;52.83;99552.41;4474889;31;35527;-83
2022/01/30 11:14:18;;;;;;;3.30;0.90;;;;;;;6.66;51.77;99550.91;4492983;31;35561;-81
2022/01/30 11:17:08;;;;;;;3.58;1.00;;;;;;;6.63;51.30;99567.81;4487104;31;33900;-83
2022/01/30 11:19:57;;;;;;;5.87;1.30;;;;;;;6.49;51.22;99535.00;4467072;31;34615;-79
2022/01/30 11:22:46;;;;;;;4.68;1.30;;;;;;;6.59;51.09;99555.03;4475144;31;34991;-85
2022/01/30 11:25:36;;;;;;;2.85;0.62;;;;;;;6.71;48.46;99556.28;4475920;31;34590;-81
2022/01/30 11:28:22;;;;;;;16.60;1.25;;;;;;;6.74;47.02;99511.31;4487928;31;34148;-82
2022/01/30 11:31:09;;;;;;;5.10;1.20;;;;;;;6.61;47.86;99534.59;4476392;31;34773;-85
2022/01/30 11:33:55;;;;;;;8.98;2.75;;;;;;;6.67;47.02;99552.50;4476593;31;35915;-82
2022/01/30 11:36:44;;;;;;;8.52;2.30;;;;;;;6.29;51.27;99559.66;4477753;31;35479;-85
2022/01/30 11:39:30;;;;;;;9.10;1.80;;;;;;;5.68;56.89;99549.97;4478734;31;34173;-85
2022/01/30 11:42:21;;;;;;;5.03;1.23;;;;;;;5.87;55.78;99533.81;4491431;31;35460;-82
2022/01/30 11:45:07;;;;;;;5.10;2.17;;;;;;;5.90;54.71;99560.44;4486134;31;35031;-82
2022/01/30 11:48:15;;;;;;;5.37;1.87;;;;;;;5.56;57.52;99565.81;4487357;31;34226;-84
2022/01/30 11:51:02;;;;;;;12.70;3.72;;;;;;;5.47;59.89;99532.16;4474162;31;34105;-86
2022/01/30 11:53:49;;;;;;;9.18;3.00;;;;;;;5.71;59.01;99514.06;4475324;31;34683;-83
2022/01/30 11:56:35;;;;;;;9.10;2.40;;;;;;;6.04;55.27;99501.62;4463836;31;34960;-84
2022/01/30 11:59:36;;;;;;;6.82;1.73;;;;;;;6.30;53.53;99483.16;4486637;31;35834;-85
2022/01/30 12:02:33;;;;;;;4.23;0.93;;;;;;;6.57;51.67;99475.56;4477426;31;34367;-83
2022/01/30 12:05:33;;;;;;;5.40;1.85;;;;;;;6.71;49.07;99469.13;4488800;31;34597;-83
2022/01/30 12:08:45;;;;;;;5.40;0.93;;;;;;;6.76;47.95;99529.00;4481107;31;34866;-87
2022/01/30 12:11:37;;;;;;;7.93;1.70;;;;;;;6.88;47.87;99465.16;4477757;31;34766;-84
2022/01/30 12:14:23;;;;;;;8.18;2.00;;;;;;;6.52;47.38;99485.41;4492868;31;34218;-85
2022/01/30 12:17:10;;;;;;;8.82;1.70;;;;;;;6.65;46.67;99470.28;4476837;31;34507;-83
2022/01/30 12:20:01;;;;;;;9.93;1.80;;;;;;;6.69;45.67;99476.81;4489538;31;35064;-86
2022/01/30 12:22:48;;;;;;;7.75;1.87;;;;;;;6.73;45.63;99449.81;4468237;31;34754;-83
2022/01/30 12:25:35;;;;;;;2.95;1.00;;;;;;;6.89;45.41;99474.97;4476011;31;35137;-85
2022/01/30 12:28:45;;;;;;;5.87;1.40;;;;;;;6.82;44.98;99485.38;4473565;31;34625;-84
2022/01/30 12:31:34;;;;;;;1.70;0.60;;;;;;;6.83;45.71;99486.97;4479612;31;34944;-84
2022/01/30 12:34:20;;;;;;;7.43;1.30;;;;;;;6.69;46.17;99514.91;4475407;31;34305;-82
2022/01/30 12:37:08;;;;;;;7.85;0.80;;;;;;;6.63;46.55;99524.25;4491130;31;34094;-78
2022/01/30 12:39:56;;;;;;;5.43;1.10;;;;;;;6.57;46.75;99513.69;4479860;31;34652;-79
2022/01/30 12:42:43;;;;;;;4.65;1.12;;;;;;;6.39;47.16;99518.75;4479405;31;35200;-83
2022/01/30 12:45:29;;;;;;;5.28;1.10;;;;;;;6.56;47.05;99473.94;4465419;31;35655;-83
2022/01/30 12:48:15;;;;;;;4.68;1.58;;;;;;;6.52;46.45;99512.63;4490498;31;33679;-82
2022/01/30 12:51:07;;;;;;;7.75;1.12;;;;;;;6.56;46.58;99501.97;4489352;31;34570;-81
2022/01/30 12:53:55;;;;;;;5.85;1.62;;;;;;;6.85;46.35;99457.56;4467783;31;35932;-79
2022/01/30 12:56:42;;;;;;;15.82;1.10;;;;;;;6.89;45.87;99488.56;4477515;31;34836;-81
2022/01/30 12:59:28;;;;;;;7.05;1.25;;;;;;;6.82;46.22;99496.25;4480956;31;33450;-83
2022/01/30 13:02:15;;;;;;;10.27;1.35;;;;;;;6.31;48.47;99484.78;4478542;31;34622;-79
2022/01/30 13:05:03;;;;;;;4.40;1.10;;;;;;;6.36;49.25;99470.34;4468443;31;35999;-80
2022/01/30 13:07:57;;;;;;;7.30;1.60;;;;;;;6.59;48.67;99485.06;4491657;31;34746;-85
2022/01/30 13:10:43;;;;;;;12.32;4.68;;;;;;;6.67;48.46;99468.09;4479589;31;35024;-83
2022/01/30 13:13:50;;;;;;;7.30;1.25;;;;;;;6.63;47.15;99453.47;4478935;31;34620;-83
2022/01/30 13:16:40;;;;;;;11.77;2.60;;;;;;;6.63;46.36;99453.47;4478852;31;35008;-79
2022/01/30 13:19:35;;;;;;;8.05;1.48;;;;;;;6.79;46.27;99462.25;4476052;31;35507;-80
2022/01/30 13:22:49;;;;;;;5.47;1.55;;;;;;;6.97;44.80;99438.88;4476470;31;34639;-79
2022/01/30 13:25:35;;;;;;;4.95;0.93;;;;;;;6.86;43.88;99442.81;4477137;31;34239;-78
2022/01/30 13:28:22;;;;;;;5.10;1.00;;;;;;;6.80;43.96;99495.72;4497563;31;35925;-80
2022/01/30 13:31:14;;;;;;;5.53;0.93;;;;;;;6.96;43.86;99451.69;4492325;31;34435;-82
2022/01/30 13:34:15;;;;;;;7.12;1.85;;;;;;;6.96;42.90;99483.56;4492840;31;34287;-82
2022/01/30 13:37:11;;;;;;;4.03;0.90;;;;;;;6.73;44.13;99458.78;4491847;31;34591;-79
2022/01/30 13:40:17;;;;;;;7.10;1.23;;;;;;;6.62;44.62;99476.31;4464592;31;34586;-79
2022/01/30 13:43:12;;;;;;;8.38;1.23;;;;;;;6.79;45.13;99499.56;4470777;31;34577;-75
2022/01/30 13:49:05;;;;;;;12.73;1.90;;;;;;;6.73;44.78;99509.72;4496133;31;34864;-77
2022/01/30 13:52:09;;;;;;;5.05;0.93;;;;;;;6.10;48.09;99543.19;4476969;31;34637;-78
2022/01/30 13:55:06;;;;;;;13.43;1.37;;;;;;;6.01;48.42;99531.31;4479002;31;34718;-75
2022/01/30 13:57:57;;;;;;;5.97;1.42;;;;;;;5.77;49.51;99559.16;4476485;31;33058;-74
2022/01/30 14:00:46;;;;;;;9.23;1.40;;;;;;;5.76;50.34;99552.09;4485744;31;35473;-80
2022/01/30 14:03:32;;;;;;;9.10;1.23;;;;;;;5.83;48.44;99552.63;4485585;31;35924;-76
2022/01/30 14:06:27;;;;;;;14.98;2.33;;;;;;;5.88;49.08;99595.25;4481594;31;35536;-80
2022/01/30 14:09:25;;;;;;;13.05;1.60;;;;;;;5.81;49.70;99552.06;4493196;31;34207;-76
2022/01/30 14:12:13;;;;;;;14.38;1.65;;;;;;;6.02;49.25;99541.09;4468252;31;34536;-77
2022/01/30 14:15:03;;;;;;;7.22;1.77;;;;;;;6.24;48.09;99544.19;4485265;31;34839;-76
2022/01/30 14:18:27;;;;;;;7.80;1.23;;;;;;;6.24;47.55;99549.63;4480220;31;35421;-75
2022/01/30 14:21:16;;;;;;;11.15;1.50;;;;;;;6.34;47.46;99556.06;4417502;32;34136;-77